Time;durP1;ratioP1;P1;durP2;ratioP2;P2;SDS_P1;SDS_P2;PMS_P1;PMS_P2;Temp;Humidity;BMP_temperature;BMP_pressure;BME280_temperature;BME280_humidity;BME280_pressure;Samples;Min_cycle;Max_cycle;Signal;HPM_P1;HPM_P2
2023/07/31 00:00:40;;;;;;;;;7.67;4.00;;;;;;;;4844855;29;46287;-67
2023/07/31 00:03:05;;;;;;;;;10.33;5.67;;;;;;;;4845217;29;45366;-66
2023/07/31 00:05:30;;;;;;;;;8.33;5.00;;;;;;;;4845117;29;45369;-66
2023/07/31 00:07:56;;;;;;;;;8.67;4.33;;;;;;;;4845051;29;45289;-66
2023/07/31 00:10:21;;;;;;;;;4.67;3.33;;;;;;;;4844894;29;46148;-66
2023/07/31 00:12:47;;;;;;;;;5.75;4.00;;;;;;;;4844224;29;45342;-66
2023/07/31 00:15:13;;;;;;;;;5.00;3.75;;;;;;;;4844772;29;45289;-66
2023/07/31 00:17:38;;;;;;;;;4.00;3.00;;;;;;;;4844426;29;45388;-66
2023/07/31 00:20:03;;;;;;;;;3.25;3.25;;;;;;;;4844542;29;46173;-67
2023/07/31 00:22:29;;;;;;;;;6.00;4.00;;;;;;;;4844482;29;45472;-67
2023/07/31 00:24:54;;;;;;;;;7.00;2.75;;;;;;;;4844436;29;45311;-67
2023/07/31 00:27:19;;;;;;;;;4.25;2.50;;;;;;;;4844843;29;45450;-66
2023/07/31 00:29:44;;;;;;;;;4.00;2.25;;;;;;;;4843933;29;46122;-66
2023/07/31 00:32:09;;;;;;;;;5.00;3.00;;;;;;;;4844490;29;45477;-66
2023/07/31 00:34:35;;;;;;;;;2.33;2.00;;;;;;;;4844233;29;45318;-67
2023/07/31 00:37:00;;;;;;;;;4.75;2.75;;;;;;;;4843515;29;45550;-66
2023/07/31 00:39:25;;;;;;;;;7.33;3.67;;;;;;;;4844098;29;45445;-66
2023/07/31 00:41:50;;;;;;;;;4.50;2.50;;;;;;;;4844070;29;45357;-66
2023/07/31 00:44:15;;;;;;;;;7.00;4.00;;;;;;;;4844416;29;45303;-66
2023/07/31 00:46:41;;;;;;;;;8.75;5.00;;;;;;;;4843980;29;45403;-67
2023/07/31 00:49:06;;;;;;;;;5.00;5.00;;;;;;;;4844030;29;45457;-66
2023/07/31 00:51:31;;;;;;;;;1.75;1.50;;;;;;;;4844250;29;45384;-66
2023/07/31 00:53:57;;;;;;;;;5.50;4.00;;;;;;;;4844168;29;45686;-67
2023/07/31 00:56:23;;;;;;;;;7.33;3.33;;;;;;;;4844530;29;45298;-67
2023/07/31 00:58:48;;;;;;;;;7.00;4.00;;;;;;;;4843552;29;46072;-66
2023/07/31 01:01:14;;;;;;;;;6.00;5.33;;;;;;;;4844080;29;45226;-66
2023/07/31 01:03:39;;;;;;;;;4.00;4.00;;;;;;;;4843789;29;45478;-67
2023/07/31 01:06:04;;;;;;;;;5.00;5.00;;;;;;;;4843889;29;45406;-66
2023/07/31 01:08:29;;;;;;;;;6.50;4.75;;;;;;;;4843769;29;46607;-66
2023/07/31 01:10:58;;;;;;;;;6.67;4.33;;;;;;;;4843570;29;45301;-67
2023/07/31 01:13:23;;;;;;;;;4.33;3.33;;;;;;;;4843852;29;45475;-67
2023/07/31 01:15:48;;;;;;;;;7.00;4.00;;;;;;;;4843954;29;45396;-67
2023/07/31 01:18:13;;;;;;;;;6.33;3.33;;;;;;;;4843622;29;46623;-67
2023/07/31 01:20:41;;;;;;;;;9.67;6.67;;;;;;;;4843907;29;45457;-66
2023/07/31 01:23:15;;;;;;;;;5.33;5.00;;;;;;;;4843454;29;45872;-67
2023/07/31 01:26:02;;;;;;;;;6.33;5.00;;;;;;;;4843747;29;45333;-67
2023/07/31 01:28:32;;;;;;;;;6.00;5.25;;;;;;;;4843377;29;46595;-66
2023/07/31 01:31:00;;;;;;;;;5.00;3.00;;;;;;;;4843403;29;45838;-67
2023/07/31 01:33:25;;;;;;;;;7.25;5.00;;;;;;;;4843847;29;45467;-66
2023/07/31 01:35:51;;;;;;;;;8.67;6.00;;;;;;;;4843703;29;45339;-66
2023/07/31 01:38:20;;;;;;;;;8.00;5.00;;;;;;;;4843285;29;47303;-66
2023/07/31 01:40:50;;;;;;;;;5.00;4.00;;;;;;;;4843466;29;45505;-67
2023/07/31 01:43:15;;;;;;;;;7.00;5.00;;;;;;;;4843405;29;45286;-66
2023/07/31 01:45:41;;;;;;;;;5.00;5.00;;;;;;;;4843754;29;45434;-66
2023/07/31 01:48:06;;;;;;;;;6.00;4.33;;;;;;;;4843208;29;46695;-66
2023/07/31 01:50:31;;;;;;;;;6.67;5.00;;;;;;;;4845960;29;45445;-67
2023/07/31 01:52:56;;;;;;;;;9.33;5.33;;;;;;;;4846392;29;45504;-66
2023/07/31 01:55:21;;;;;;;;;9.67;5.00;;;;;;;;4846472;29;45806;-67
2023/07/31 01:57:48;;;;;;;;;10.67;9.33;;;;;;;;4846358;29;45477;-67
2023/07/31 02:00:13;;;;;;;;;8.67;7.33;;;;;;;;4846031;29;45506;-66
2023/07/31 02:02:38;;;;;;;;;7.33;6.67;;;;;;;;4846761;29;45268;-66
2023/07/31 02:05:04;;;;;;;;;9.33;6.33;;;;;;;;4846500;29;45431;-67
2023/07/31 02:07:29;;;;;;;;;4.00;4.00;;;;;;;;4845950;29;47024;-66
2023/07/31 02:09:54;;;;;;;;;5.33;5.33;;;;;;;;4846387;29;45467;-66
2023/07/31 02:12:19;;;;;;;;;7.25;3.75;;;;;;;;4846244;29;45450;-66
2023/07/31 02:14:45;;;;;;;;;8.00;5.00;;;;;;;;4846606;29;45246;-66
2023/07/31 02:17:10;;;;;;;;;6.00;5.00;;;;;;;;4845811;29;46236;-67
2023/07/31 02:19:35;;;;;;;;;5.50;4.25;;;;;;;;4846154;29;45492;-66
2023/07/31 02:22:00;;;;;;;;;6.67;5.00;;;;;;;;4846122;29;45436;-62
2023/07/31 02:24:25;;;;;;;;;3.50;3.50;;;;;;;;4846651;29;45359;-64
2023/07/31 02:26:51;;;;;;;;;4.50;3.50;;;;;;;;4846274;29;45345;-65
2023/07/31 02:29:16;;;;;;;;;6.33;4.33;;;;;;;;4846260;29;45778;-65
2023/07/31 02:31:41;;;;;;;;;5.67;4.00;;;;;;;;4846676;29;45366;-64
2023/07/31 02:34:06;;;;;;;;;12.00;6.00;;;;;;;;4846439;29;45548;-64
2023/07/31 02:36:31;;;;;;;;;6.33;4.67;;;;;;;;4845009;29;45639;-64
2023/07/31 02:38:57;;;;;;;;;7.50;4.75;;;;;;;;4846244;29;45200;-64
2023/07/31 02:41:22;;;;;;;;;7.00;5.67;;;;;;;;4846323;29;45348;-65
2023/07/31 02:43:47;;;;;;;;;7.00;5.67;;;;;;;;4846682;29;45299;-63
2023/07/31 02:46:12;;;;;;;;;6.00;4.00;;;;;;;;4845887;29;45640;-65
2023/07/31 02:48:37;;;;;;;;;9.67;6.33;;;;;;;;4845987;29;45436;-65
2023/07/31 02:51:03;;;;;;;;;5.75;5.00;;;;;;;;4846309;29;45460;-64
2023/07/31 02:53:28;;;;;;;;;6.67;6.33;;;;;;;;4846356;29;45391;-65
2023/07/31 02:55:53;;;;;;;;;3.25;3.25;;;;;;;;4846156;29;46464;-65
2023/07/31 02:58:18;;;;;;;;;9.00;6.00;;;;;;;;4845784;29;45318;-64
2023/07/31 03:00:44;;;;;;;;;5.00;5.00;;;;;;;;4845442;29;45420;-64
2023/07/31 03:03:09;;;;;;;;;7.67;7.67;;;;;;;;4846372;29;45316;-64
2023/07/31 03:05:34;;;;;;;;;7.00;6.00;;;;;;;;4845802;29;46316;-64
2023/07/31 03:08:00;;;;;;;;;9.00;6.00;;;;;;;;4845634;29;45458;-64
2023/07/31 03:10:25;;;;;;;;;5.75;5.50;;;;;;;;4845958;29;45505;-64
2023/07/31 03:12:50;;;;;;;;;7.33;6.00;;;;;;;;4846077;29;45409;-64
2023/07/31 03:15:15;;;;;;;;;7.00;5.33;;;;;;;;4845667;29;46473;-64
2023/07/31 03:17:40;;;;;;;;;7.00;7.00;;;;;;;;4845667;29;45408;-64
2023/07/31 03:20:06;;;;;;;;;10.00;5.67;;;;;;;;4845958;29;45415;-68
2023/07/31 03:22:31;;;;;;;;;6.00;5.00;;;;;;;;4845837;29;45477;-65
2023/07/31 03:24:56;;;;;;;;;6.00;6.00;;;;;;;;4845700;29;46411;-65
2023/07/31 03:27:22;;;;;;;;;5.67;4.33;;;;;;;;4845497;29;45421;-65
2023/07/31 03:29:49;;;;;;;;;6.00;4.00;;;;;;;;4845654;29;45180;-65
2023/07/31 03:32:14;;;;;;;;;6.33;4.33;;;;;;;;4845482;29;45533;-65
2023/07/31 03:34:40;;;;;;;;;6.00;6.00;;;;;;;;4845016;29;45717;-66
2023/07/31 03:37:05;;;;;;;;;9.00;6.00;;;;;;;;4845174;29;45390;-65
2023/07/31 03:39:30;;;;;;;;;4.00;4.00;;;;;;;;4845704;29;45326;-66
2023/07/31 03:41:55;;;;;;;;;5.67;4.00;;;;;;;;4845699;29;45463;-65
2023/07/31 03:44:20;;;;;;;;;6.00;5.33;;;;;;;;4844870;29;45432;-65
2023/07/31 03:46:46;;;;;;;;;5.50;4.25;;;;;;;;4845192;29;45480;-65
2023/07/31 03:49:11;;;;;;;;;4.75;3.00;;;;;;;;4845472;29;45232;-66
2023/07/31 03:51:36;;;;;;;;;3.25;3.25;;;;;;;;4845651;29;45282;-65
2023/07/31 03:54:01;;;;;;;;;4.50;4.50;;;;;;;;4845239;29;45687;-64
2023/07/31 03:56:26;;;;;;;;;7.33;6.67;;;;;;;;4845123;29;45225;-65
2023/07/31 03:58:52;;;;;;;;;5.00;2.25;;;;;;;;4845225;29;45300;-66
2023/07/31 04:01:19;;;;;;;;;4.00;4.00;;;;;;;;4845446;29;45944;-66
2023/07/31 04:03:44;;;;;;;;;6.67;5.00;;;;;;;;4845032;29;46251;-65
2023/07/31 04:06:10;;;;;;;;;5.67;5.00;;;;;;;;4845990;29;45478;-66
2023/07/31 04:08:35;;;;;;;;;6.00;4.00;;;;;;;;4852750;29;45512;-64
2023/07/31 04:11:00;;;;;;;;;5.00;4.25;;;;;;;;4844991;29;45345;-66
2023/07/31 04:13:27;;;;;;;;;6.00;6.00;;;;;;;;4844188;29;46474;-66
2023/07/31 04:15:52;;;;;;;;;5.50;5.00;;;;;;;;4843339;29;45555;-66
2023/07/31 04:18:17;;;;;;;;;4.25;4.25;;;;;;;;4844727;29;45308;-66
2023/07/31 04:20:43;;;;;;;;;6.50;4.75;;;;;;;;4844871;29;45422;-66
2023/07/31 04:23:08;;;;;;;;;5.00;5.00;;;;;;;;4844990;29;46517;-66
2023/07/31 04:25:34;;;;;;;;;4.75;4.75;;;;;;;;4863490;29;45308;-66
2023/07/31 04:28:00;;;;;;;;;4.50;3.25;;;;;;;;4863248;29;45259;-66
2023/07/31 04:30:25;;;;;;;;;5.00;5.00;;;;;;;;4863271;29;45392;-66
2023/07/31 04:32:50;;;;;;;;;4.67;3.00;;;;;;;;4854489;29;45650;-66
2023/07/31 04:35:15;;;;;;;;;3.50;2.25;;;;;;;;4844642;29;45340;-66
2023/07/31 04:37:41;;;;;;;;;5.33;5.00;;;;;;;;4844984;29;45389;-66
2023/07/31 04:40:07;;;;;;;;;4.00;4.00;;;;;;;;4843702;29;45516;-66
2023/07/31 04:42:32;;;;;;;;;6.00;4.00;;;;;;;;4844342;29;46294;-66
2023/07/31 04:44:57;;;;;;;;;3.75;2.00;;;;;;;;4844510;29;45347;-66
2023/07/31 04:47:22;;;;;;;;;2.75;2.75;;;;;;;;4844657;29;45267;-66
2023/07/31 04:49:47;;;;;;;;;6.67;5.00;;;;;;;;4844369;29;45314;-66
2023/07/31 04:52:13;;;;;;;;;8.75;4.00;;;;;;;;4844494;29;45352;-66
2023/07/31 04:54:38;;;;;;;;;4.00;4.00;;;;;;;;4844671;29;45349;-66
2023/07/31 04:57:03;;;;;;;;;4.00;3.00;;;;;;;;4844812;29;45443;-66
2023/07/31 04:59:28;;;;;;;;;4.25;3.00;;;;;;;;4844765;29;45436;-65
2023/07/31 05:01:54;;;;;;;;;5.00;3.25;;;;;;;;4844112;29;46447;-65
2023/07/31 05:04:19;;;;;;;;;3.25;3.25;;;;;;;;4844323;29;45325;-66
2023/07/31 05:06:44;;;;;;;;;3.00;3.00;;;;;;;;4844019;29;45456;-66
2023/07/31 05:09:10;;;;;;;;;4.50;3.00;;;;;;;;4844636;29;45366;-66
2023/07/31 05:11:35;;;;;;;;;6.75;2.50;;;;;;;;4844272;29;45382;-66
2023/07/31 05:14:00;;;;;;;;;4.00;4.00;;;;;;;;4844482;29;45452;-66
2023/07/31 05:16:25;;;;;;;;;4.25;4.00;;;;;;;;4844239;29;45334;-66
2023/07/31 05:18:51;;;;;;;;;5.75;2.75;;;;;;;;4844611;29;45439;-66
2023/07/31 05:21:16;;;;;;;;;6.67;3.00;;;;;;;;4844209;29;46255;-66
2023/07/31 05:23:41;;;;;;;;;6.00;6.00;;;;;;;;4845695;29;45290;-66
2023/07/31 05:26:07;;;;;;;;;6.00;4.33;;;;;;;;4847651;29;45440;-66
2023/07/31 05:28:34;;;;;;;;;4.67;3.00;;;;;;;;4847311;29;45264;-66
2023/07/31 05:31:00;;;;;;;;;5.75;4.00;;;;;;;;4846820;29;46358;-66
2023/07/31 05:33:25;;;;;;;;;7.00;4.25;;;;;;;;4847267;29;45366;-67
2023/07/31 05:35:50;;;;;;;;;5.50;5.50;;;;;;;;4847265;29;45408;-66
2023/07/31 05:38:16;;;;;;;;;7.00;3.75;;;;;;;;4847633;29;45292;-66
2023/07/31 05:40:42;;;;;;;;;7.00;5.00;;;;;;;;4846953;29;46339;-66
2023/07/31 05:43:08;;;;;;;;;6.00;4.00;;;;;;;;4847121;29;45436;-66
2023/07/31 05:45:33;;;;;;;;;4.33;4.33;;;;;;;;4847121;29;45285;-67
2023/07/31 05:47:58;;;;;;;;;7.00;6.00;;;;;;;;4847403;29;45481;-66
2023/07/31 05:50:23;;;;;;;;;6.50;4.00;;;;;;;;4846929;29;46340;-67
2023/07/31 05:52:49;;;;;;;;;4.00;4.00;;;;;;;;4847121;29;45317;-67
2023/07/31 05:55:14;;;;;;;;;4.00;3.00;;;;;;;;4847036;29;45326;-66
2023/07/31 05:57:39;;;;;;;;;4.00;4.00;;;;;;;;4846948;29;45357;-66
2023/07/31 06:00:05;;;;;;;;;7.00;5.00;;;;;;;;4846364;29;45464;-66
2023/07/31 06:02:33;;;;;;;;;5.33;4.33;;;;;;;;4846076;29;45475;-65
2023/07/31 06:04:58;;;;;;;;;5.00;5.00;;;;;;;;4847116;29;45317;-64
2023/07/31 06:07:23;;;;;;;;;6.33;2.33;;;;;;;;4846636;29;45507;-66
2023/07/31 06:09:49;;;;;;;;;6.33;3.33;;;;;;;;4846783;29;45368;-67
2023/07/31 06:12:17;;;;;;;;;3.50;3.00;;;;;;;;4845868;29;45530;-67
2023/07/31 06:14:42;;;;;;;;;3.33;2.33;;;;;;;;4846650;29;45452;-67
2023/07/31 06:17:08;;;;;;;;;5.00;5.00;;;;;;;;4846842;29;45548;-67
2023/07/31 06:19:33;;;;;;;;;4.33;2.00;;;;;;;;4846287;29;46230;-67
2023/07/31 06:21:58;;;;;;;;;5.00;2.67;;;;;;;;4845921;29;45230;-67
2023/07/31 06:24:23;;;;;;;;;4.00;4.00;;;;;;;;4846868;29;45403;-67
2023/07/31 06:26:50;;;;;;;;;5.00;4.00;;;;;;;;4846675;29;45367;-67
2023/07/31 06:29:15;;;;;;;;;3.00;3.00;;;;;;;;4846295;29;47172;-66
2023/07/31 06:31:41;;;;;;;;;4.00;3.50;;;;;;;;4846196;29;45427;-67
2023/07/31 06:34:06;;;;;;;;;3.00;3.00;;;;;;;;4846664;29;45308;-67
2023/07/31 06:36:31;;;;;;;;;4.75;3.50;;;;;;;;4845306;29;45506;-67
2023/07/31 06:38:56;;;;;;;;;3.00;3.00;;;;;;;;4845882;29;45568;-67
2023/07/31 06:41:21;;;;;;;;;4.67;3.33;;;;;;;;4846201;29;45378;-67
2023/07/31 06:43:47;;;;;;;;;3.25;3.00;;;;;;;;4846157;29;45418;-67
2023/07/31 06:46:12;;;;;;;;;4.00;3.00;;;;;;;;4846142;29;45465;-66
2023/07/31 06:48:37;;;;;;;;;4.00;2.50;;;;;;;;4846063;29;46450;-67
2023/07/31 06:51:02;;;;;;;;;4.33;3.67;;;;;;;;4845758;29;45263;-67
2023/07/31 06:53:28;;;;;;;;;2.00;2.00;;;;;;;;4846364;29;45520;-67
2023/07/31 06:55:54;;;;;;;;;5.00;3.00;;;;;;;;4846444;29;45315;-67
2023/07/31 06:58:19;;;;;;;;;4.00;4.00;;;;;;;;4846024;29;45512;-67
2023/07/31 07:00:45;;;;;;;;;3.00;3.00;;;;;;;;4845894;29;45440;-68
2023/07/31 07:03:10;;;;;;;;;3.00;3.00;;;;;;;;4846268;29;45374;-67
2023/07/31 07:05:35;;;;;;;;;4.00;2.00;;;;;;;;4846226;29;45354;-67
2023/07/31 07:08:00;;;;;;;;;3.00;2.00;;;;;;;;4845719;29;46225;-67
2023/07/31 07:10:25;;;;;;;;;4.00;2.33;;;;;;;;4845929;29;45172;-67
2023/07/31 07:12:51;;;;;;;;;2.50;1.75;;;;;;;;4846034;29;45568;-67
2023/07/31 07:15:16;;;;;;;;;2.25;2.25;;;;;;;;4852268;29;45466;-67
2023/07/31 07:17:41;;;;;;;;;3.00;2.00;;;;;;;;4862833;29;45638;-67
2023/07/31 07:20:07;;;;;;;;;3.25;2.25;;;;;;;;4861472;29;45214;-67
2023/07/31 07:22:33;;;;;;;;;2.33;2.33;;;;;;;;4845770;29;45267;-67
2023/07/31 07:24:58;;;;;;;;;2.67;2.00;;;;;;;;4845837;29;45468;-67
2023/07/31 07:27:23;;;;;;;;;3.00;3.00;;;;;;;;4845559;29;46332;-68
2023/07/31 07:29:50;;;;;;;;;2.75;2.00;;;;;;;;4845423;29;45315;-67
2023/07/31 07:32:15;;;;;;;;;5.00;4.33;;;;;;;;4848342;29;45311;-67
2023/07/31 07:34:40;;;;;;;;;4.00;4.00;;;;;;;;4864202;29;45365;-67
2023/07/31 07:37:05;;;;;;;;;4.33;4.33;;;;;;;;4863921;29;46689;-67
2023/07/31 07:39:31;;;;;;;;;7.00;4.00;;;;;;;;4864233;29;45521;-67
2023/07/31 07:41:56;;;;;;;;;4.00;4.00;;;;;;;;4864303;29;45392;-67
2023/07/31 07:44:21;;;;;;;;;5.67;4.00;;;;;;;;4864189;29;45371;-67
2023/07/31 07:46:46;;;;;;;;;6.00;4.67;;;;;;;;4862714;29;45360;-67
2023/07/31 07:49:12;;;;;;;;;5.00;4.00;;;;;;;;4863710;29;45340;-67
2023/07/31 07:51:37;;;;;;;;;4.33;4.33;;;;;;;;4863891;29;45443;-68
2023/07/31 07:54:02;;;;;;;;;7.00;6.00;;;;;;;;4863975;29;45343;-67
2023/07/31 07:56:27;;;;;;;;;6.67;4.00;;;;;;;;4863826;29;45501;-67
2023/07/31 07:58:53;;;;;;;;;5.67;5.67;;;;;;;;4863764;29;45414;-67
2023/07/31 08:01:18;;;;;;;;;5.00;3.00;;;;;;;;4863877;29;45315;-67
2023/07/31 08:03:43;;;;;;;;;6.50;3.00;;;;;;;;4864095;29;45533;-67
2023/07/31 08:06:09;;;;;;;;;5.75;4.75;;;;;;;;4863412;29;46399;-67
2023/07/31 08:08:34;;;;;;;;;11.00;6.00;;;;;;;;4863615;29;45311;-67
2023/07/31 08:10:59;;;;;;;;;9.67;5.00;;;;;;;;4863736;29;45510;-67
2023/07/31 08:13:25;;;;;;;;;4.00;4.00;;;;;;;;4852008;29;45561;-67
2023/07/31 08:15:50;;;;;;;;;4.33;1.00;;;;;;;;4844484;29;46459;-67
2023/07/31 08:18:17;;;;;;;;;5.33;5.33;;;;;;;;4842742;29;45222;-67
2023/07/31 08:20:42;;;;;;;;;5.00;4.00;;;;;;;;4844285;29;45212;-67
2023/07/31 08:23:07;;;;;;;;;9.67;7.00;;;;;;;;4844680;29;45510;-67
2023/07/31 08:25:35;;;;;;;;;5.00;5.00;;;;;;;;4844580;29;46575;-67
2023/07/31 08:28:00;;;;;;;;;8.67;5.67;;;;;;;;4844277;29;45514;-67
2023/07/31 08:30:25;;;;;;;;;8.33;6.67;;;;;;;;4844194;29;45468;-68
2023/07/31 08:32:50;;;;;;;;;6.00;5.00;;;;;;;;4844764;29;45461;-68
2023/07/31 08:35:15;;;;;;;;;10.33;7.67;;;;;;;;4844162;29;45441;-68
2023/07/31 08:37:41;;;;;;;;;3.00;3.00;;;;;;;;4844430;29;45344;-68
2023/07/31 08:40:06;;;;;;;;;9.00;7.00;;;;;;;;4844381;29;45290;-67
2023/07/31 08:42:32;;;;;;;;;8.67;5.67;;;;;;;;4844606;29;45372;-67
2023/07/31 08:44:57;;;;;;;;;10.00;6.00;;;;;;;;4844217;29;47353;-67
2023/07/31 08:47:23;;;;;;;;;5.33;5.33;;;;;;;;4844102;29;45386;-67
2023/07/31 08:49:49;;;;;;;;;4.67;4.67;;;;;;;;4844530;29;45356;-67
2023/07/31 08:52:14;;;;;;;;;8.00;6.00;;;;;;;;4844399;29;45587;-67
2023/07/31 08:54:39;;;;;;;;;8.33;5.33;;;;;;;;4843916;29;45639;-66
2023/07/31 08:57:05;;;;;;;;;8.00;6.00;;;;;;;;4840878;29;45640;-67
2023/07/31 08:59:31;;;;;;;;;7.33;5.33;;;;;;;;4846239;29;45215;-67
2023/07/31 09:01:57;;;;;;;;;21.33;18.67;;;;;;;;4847560;29;45367;-66
2023/07/31 09:04:22;;;;;;;;;8.00;5.67;;;;;;;;4846426;29;45416;-67
2023/07/31 09:06:48;;;;;;;;;6.33;5.00;;;;;;;;4846781;29;45310;-66
2023/07/31 09:09:13;;;;;;;;;37.00;34.67;;;;;;;;4846964;29;45285;-66
2023/07/31 09:11:38;;;;;;;;;8.00;5.33;;;;;;;;4846904;29;45291;-67
2023/07/31 09:14:08;;;;;;;;;5.00;3.25;;;;;;;;4846537;29;46491;-67
2023/07/31 09:16:34;;;;;;;;;7.00;5.00;;;;;;;;4844465;29;45835;-66
2023/07/31 09:19:01;;;;;;;;;6.33;6.33;;;;;;;;4846728;29;45356;-66
2023/07/31 09:21:27;;;;;;;;;4.00;4.00;;;;;;;;4846931;29;45485;-67
2023/07/31 09:23:54;;;;;;;;;6.67;5.33;;;;;;;;4846596;29;46508;-67
2023/07/31 09:26:37;;;;;;;;;9.33;7.33;;;;;;;;4846528;29;45408;-67
2023/07/31 09:29:07;;;;;;;;;6.00;5.75;;;;;;;;4846474;29;45230;-67
2023/07/31 09:31:40;;;;;;;;;8.33;7.00;;;;;;;;4846762;29;45265;-67
2023/07/31 09:34:05;;;;;;;;;7.67;5.00;;;;;;;;4844541;29;48417;-67
2023/07/31 09:36:31;;;;;;;;;4.33;3.33;;;;;;;;4846375;29;45454;-66
2023/07/31 09:39:01;;;;;;;;;4.00;4.00;;;;;;;;4846645;29;45325;-67
2023/07/31 09:41:35;;;;;;;;;8.00;7.00;;;;;;;;4828486;29;45402;-70
2023/07/31 09:44:01;;;;;;;;;7.00;7.00;;;;;;;;4833285;29;47190;-68
2023/07/31 09:46:26;;;;;;;;;9.33;6.33;;;;;;;;4846105;29;45468;-68
2023/07/31 09:48:52;;;;;;;;;10.00;6.33;;;;;;;;4846319;29;45309;-66
2023/07/31 09:51:17;;;;;;;;;6.00;4.67;;;;;;;;4846605;29;45356;-67
2023/07/31 09:53:49;;;;;;;;;4.67;4.67;;;;;;;;4846169;29;46410;-67
2023/07/31 09:56:15;;;;;;;;;5.50;3.25;;;;;;;;4843062;29;45363;-67
2023/07/31 09:58:40;;;;;;;;;8.33;6.00;;;;;;;;4846403;29;45305;-66
2023/07/31 10:01:05;;;;;;;;;4.67;4.00;;;;;;;;4845582;29;45519;-67
2023/07/31 10:03:31;;;;;;;;;4.00;3.67;;;;;;;;4846009;29;45429;-67
2023/07/31 10:05:57;;;;;;;;;7.33;5.67;;;;;;;;4845444;29;45511;-67
2023/07/31 10:08:27;;;;;;;;;6.33;5.33;;;;;;;;4846283;29;45459;-66
2023/07/31 10:10:52;;;;;;;;;9.67;5.00;;;;;;;;4845772;29;45313;-68
2023/07/31 10:13:18;;;;;;;;;6.67;5.00;;;;;;;;4845988;29;45461;-67
2023/07/31 10:15:44;;;;;;;;;7.67;6.00;;;;;;;;4846585;29;45834;-67
2023/07/31 10:18:10;;;;;;;;;6.33;6.33;;;;;;;;4846001;29;45493;-67
2023/07/31 10:20:35;;;;;;;;;7.67;6.00;;;;;;;;4846238;29;45504;-67
2023/07/31 10:23:01;;;;;;;;;10.00;8.33;;;;;;;;4846163;29;45482;-68
2023/07/31 10:25:26;;;;;;;;;9.00;7.33;;;;;;;;4846120;29;45439;-67
2023/07/31 10:27:52;;;;;;;;;7.00;6.00;;;;;;;;4846251;29;45389;-68
2023/07/31 10:30:20;;;;;;;;;6.67;6.00;;;;;;;;4849162;29;45968;-68
2023/07/31 10:32:45;;;;;;;;;9.67;5.67;;;;;;;;4845693;29;46192;-68
2023/07/31 10:35:11;;;;;;;;;9.00;6.00;;;;;;;;4845739;29;45351;-68
2023/07/31 10:37:36;;;;;;;;;6.00;4.00;;;;;;;;4845744;29;45305;-68
2023/07/31 10:40:01;;;;;;;;;8.67;6.33;;;;;;;;4845788;29;45251;-68
2023/07/31 10:42:28;;;;;;;;;8.00;6.00;;;;;;;;4845647;29;45563;-68
2023/07/31 10:44:56;;;;;;;;;5.67;4.67;;;;;;;;4845528;29;45446;-68
2023/07/31 10:47:21;;;;;;;;;2.00;2.00;;;;;;;;4845531;29;45520;-67
2023/07/31 10:49:46;;;;;;;;;8.00;7.00;;;;;;;;4846090;29;45754;-68
2023/07/31 10:52:13;;;;;;;;;9.33;8.00;;;;;;;;4845257;29;45797;-67
2023/07/31 10:54:38;;;;;;;;;10.33;7.33;;;;;;;;4845689;29;45446;-68
2023/07/31 10:57:18;;;;;;;;;7.00;6.00;;;;;;;;4845656;29;45217;-68
2023/07/31 10:59:43;;;;;;;;;8.00;6.00;;;;;;;;4846129;29;45327;-68
2023/07/31 11:02:23;;;;;;;;;6.33;5.00;;;;;;;;4845642;29;46493;-68
2023/07/31 11:05:05;;;;;;;;;7.33;7.33;;;;;;;;4845401;29;45316;-68
2023/07/31 11:07:46;;;;;;;;;4.33;4.33;;;;;;;;4845516;29;45283;-68
2023/07/31 11:10:11;;;;;;;;;5.00;5.00;;;;;;;;4845435;29;45531;-68
2023/07/31 11:12:37;;;;;;;;;6.67;3.33;;;;;;;;4845336;29;46119;-68
2023/07/31 11:15:03;;;;;;;;;9.00;7.00;;;;;;;;4845218;29;45662;-68
2023/07/31 11:17:28;;;;;;;;;6.00;5.00;;;;;;;;4844648;29;45544;-68
2023/07/31 11:19:53;;;;;;;;;5.00;5.00;;;;;;;;4845675;29;45381;-68
2023/07/31 11:22:18;;;;;;;;;8.00;6.33;;;;;;;;4844939;29;45525;-68
2023/07/31 11:24:44;;;;;;;;;1.00;1.00;;;;;;;;4845917;29;45272;-68
2023/07/31 11:27:10;;;;;;;;;8.33;5.00;;;;;;;;4845541;29;45203;-68
2023/07/31 11:29:35;;;;;;;;;3.67;3.67;;;;;;;;4845709;29;45385;-68
2023/07/31 11:32:01;;;;;;;;;5.33;4.00;;;;;;;;4845093;29;46561;-68
2023/07/31 11:34:26;;;;;;;;;7.00;5.00;;;;;;;;4844962;29;45335;-68
2023/07/31 11:36:55;;;;;;;;;4.67;3.00;;;;;;;;4845823;29;45456;-69
2023/07/31 11:39:20;;;;;;;;;4.67;4.67;;;;;;;;4845260;29;45446;-68
2023/07/31 11:41:45;;;;;;;;;4.25;2.50;;;;;;;;4845017;29;45591;-68
2023/07/31 11:44:10;;;;;;;;;3.00;3.00;;;;;;;;4845334;29;45424;-67
2023/07/31 11:46:36;;;;;;;;;4.33;3.33;;;;;;;;4845032;29;45374;-68
2023/07/31 11:49:01;;;;;;;;;3.00;3.00;;;;;;;;4845058;29;45508;-68
2023/07/31 11:51:27;;;;;;;;;6.25;3.00;;;;;;;;4844843;29;45425;-68
2023/07/31 11:54:02;;;;;;;;;4.67;3.00;;;;;;;;4844703;29;45309;-67
2023/07/31 11:56:28;;;;;;;;;2.75;2.75;;;;;;;;4845223;29;45495;-68
2023/07/31 11:58:55;;;;;;;;;5.25;2.75;;;;;;;;4845192;29;45342;-67
2023/07/31 12:01:21;;;;;;;;;2.50;2.00;;;;;;;;4844884;29;46466;-67
2023/07/31 12:03:47;;;;;;;;;3.50;2.00;;;;;;;;4844571;29;45402;-67
2023/07/31 12:06:12;;;;;;;;;3.75;3.00;;;;;;;;4844689;29;45332;-68
2023/07/31 12:08:37;;;;;;;;;4.00;4.00;;;;;;;;4845168;29;45414;-66
2023/07/31 12:11:04;;;;;;;;;3.00;3.00;;;;;;;;4844674;29;46181;-67
2023/07/31 12:13:30;;;;;;;;;4.00;4.00;;;;;;;;4844714;29;45470;-66
2023/07/31 12:15:57;;;;;;;;;4.25;2.75;;;;;;;;4844945;29;45270;-67
2023/07/31 12:18:23;;;;;;;;;4.50;2.00;;;;;;;;4844180;29;45566;-68
2023/07/31 12:20:53;;;;;;;;;1.25;0.75;;;;;;;;4843727;29;47498;-68
2023/07/31 12:23:27;;;;;;;;;3.00;2.25;;;;;;;;4843862;29;45351;-68
2023/07/31 12:26:02;;;;;;;;;7.67;4.67;;;;;;;;4844082;29;45587;-68
2023/07/31 12:28:27;;;;;;;;;3.00;3.00;;;;;;;;4844245;29;45414;-68
2023/07/31 12:30:56;;;;;;;;;3.75;2.25;;;;;;;;4844336;29;46292;-68
2023/07/31 12:33:21;;;;;;;;;4.25;3.50;;;;;;;;4842135;29;45474;-68
2023/07/31 12:35:47;;;;;;;;;4.25;3.00;;;;;;;;4844092;29;45454;-68
2023/07/31 12:38:13;;;;;;;;;3.75;3.50;;;;;;;;4844171;29;45366;-68
2023/07/31 12:40:39;;;;;;;;;4.25;2.50;;;;;;;;4843609;29;47480;-69
2023/07/31 12:43:04;;;;;;;;;40.67;35.67;;;;;;;;4843784;29;45490;-68
2023/07/31 12:45:30;;;;;;;;;9.67;5.67;;;;;;;;4843946;29;45420;-68
2023/07/31 12:47:55;;;;;;;;;2.00;2.00;;;;;;;;4843904;29;45512;-68
2023/07/31 12:50:21;;;;;;;;;3.25;3.25;;;;;;;;4843334;29;46285;-69
2023/07/31 12:52:46;;;;;;;;;3.00;3.00;;;;;;;;4843830;29;45446;-69
2023/07/31 12:55:11;;;;;;;;;2.00;2.00;;;;;;;;4843866;29;45501;-69
2023/07/31 12:57:37;;;;;;;;;5.25;3.50;;;;;;;;4844411;29;45426;-68
2023/07/31 13:00:03;;;;;;;;;4.00;2.25;;;;;;;;4843500;29;45559;-69
2023/07/31 13:02:28;;;;;;;;;4.00;2.00;;;;;;;;4844062;29;45361;-69
2023/07/31 13:04:54;;;;;;;;;2.25;2.00;;;;;;;;4843655;29;45674;-68
2023/07/31 13:07:19;;;;;;;;;2.50;2.50;;;;;;;;4843941;29;45367;-69
2023/07/31 13:09:44;;;;;;;;;2.00;1.00;;;;;;;;4843083;29;47564;-68
2023/07/31 13:12:09;;;;;;;;;3.00;3.00;;;;;;;;4844026;29;45474;-68
2023/07/31 13:14:35;;;;;;;;;1.00;1.00;;;;;;;;4844258;29;45259;-69
2023/07/31 13:17:00;;;;;;;;;0.75;0.75;;;;;;;;4844070;29;45440;-68
2023/07/31 13:19:25;;;;;;;;;1.00;1.00;;;;;;;;4843583;29;46476;-69
2023/07/31 13:21:50;;;;;;;;;1.00;1.00;;;;;;;;4843769;29;45377;-69
2023/07/31 13:24:15;;;;;;;;;0.75;0.75;;;;;;;;4843890;29;45369;-69
2023/07/31 13:26:41;;;;;;;;;2.00;0.75;;;;;;;;4844243;29;45501;-69
2023/07/31 13:29:06;;;;;;;;;0.50;0.50;;;;;;;;4843717;29;47019;-68
2023/07/31 13:31:31;;;;;;;;;0.50;0.50;;;;;;;;4843474;29;45397;-69
2023/07/31 13:33:56;;;;;;;;;0.75;0.50;;;;;;;;4843775;29;45430;-69
2023/07/31 13:36:22;;;;;;;;;0.25;0.25;;;;;;;;4843800;29;45498;-68
2023/07/31 13:38:47;;;;;;;;;1.00;1.00;;;;;;;;4843034;29;46187;-69
2023/07/31 13:41:12;;;;;;;;;2.00;1.00;;;;;;;;4843194;29;45302;-69
2023/07/31 13:43:37;;;;;;;;;4.00;1.00;;;;;;;;4843637;29;45461;-69
2023/07/31 13:46:06;;;;;;;;;0.75;0.75;;;;;;;;4846890;29;45386;-70
2023/07/31 13:48:32;;;;;;;;;2.00;2.00;;;;;;;;4846926;29;46378;-69
2023/07/31 13:50:57;;;;;;;;;3.25;3.25;;;;;;;;4846684;29;45817;-69
2023/07/31 13:53:22;;;;;;;;;2.00;2.00;;;;;;;;4846498;29;45353;-70
2023/07/31 13:55:49;;;;;;;;;2.75;2.75;;;;;;;;4846836;29;45337;-69
2023/07/31 13:58:14;;;;;;;;;0.00;0.00;;;;;;;;4846556;29;45688;-70
2023/07/31 14:00:39;;;;;;;;;0.50;0.50;;;;;;;;4846508;29;45230;-69
2023/07/31 14:03:04;;;;;;;;;8.67;7.67;;;;;;;;4846306;29;45251;-69
2023/07/31 14:05:29;;;;;;;;;1.00;1.00;;;;;;;;4846585;29;45260;-68
2023/07/31 14:07:55;;;;;;;;;1.00;1.00;;;;;;;;4846058;29;46225;-69
2023/07/31 14:10:20;;;;;;;;;1.00;1.00;;;;;;;;4846522;29;45428;-69
2023/07/31 14:12:45;;;;;;;;;1.25;1.25;;;;;;;;4846884;29;45331;-70
2023/07/31 14:15:10;;;;;;;;;2.75;2.00;;;;;;;;4846686;29;45504;-69
2023/07/31 14:17:36;;;;;;;;;2.00;0.00;;;;;;;;4846053;29;47455;-69
2023/07/31 14:20:01;;;;;;;;;1.25;1.25;;;;;;;;4846339;29;45313;-67
2023/07/31 14:22:28;;;;;;;;;0.00;0.00;;;;;;;;4846477;29;45332;-68
2023/07/31 14:24:53;;;;;;;;;1.00;1.00;;;;;;;;4846520;29;45456;-68
2023/07/31 14:27:18;;;;;;;;;0.50;0.50;;;;;;;;4845948;29;46343;-69
2023/07/31 14:29:44;;;;;;;;;0.50;0.50;;;;;;;;4846128;29;45530;-70
2023/07/31 14:32:09;;;;;;;;;0.00;0.00;;;;;;;;4846598;29;45438;-70
2023/07/31 14:34:34;;;;;;;;;4.00;1.00;;;;;;;;4846121;29;45380;-70